Time;durP1;ratioP1;P1;durP2;ratioP2;P2;SDS_P1;SDS_P2;PMS_P1;PMS_P2;Temp;Humidity;BMP_temperature;BMP_pressure;BME280_temperature;BME280_humidity;BME280_pressure;Samples;Min_cycle;Max_cycle;Signal;HPM_P1;HPM_P2
2021/05/22 00:01:37;;;;;;;0.55;0.28;;;;;;;27.61;30.53;95824.56;5020428;28;20053;-38
2021/05/22 00:04:03;;;;;;;0.55;0.30;;;;;;;27.61;30.58;95840.34;5027074;28;20114;-35
2021/05/22 00:06:29;;;;;;;0.98;0.40;;;;;;;27.61;30.69;95840.34;5023320;28;20068;-32
2021/05/22 00:08:54;;;;;;;0.20;0.20;;;;;;;27.61;30.61;95835.91;5038117;28;20728;-38
2021/05/22 00:11:20;;;;;;;0.20;0.20;;;;;;;27.61;30.58;95825.38;5030324;28;20025;-38
2021/05/22 00:13:45;;;;;;;4.53;0.30;;;;;;;27.57;30.35;95834.44;5023677;28;20803;-32
2021/05/22 00:16:10;;;;;;;1.10;0.30;;;;;;;27.60;30.64;95842.09;5021763;28;20054;-34
2021/05/22 00:18:36;;;;;;;0.55;0.25;;;;;;;27.59;30.61;95837.81;5023107;28;20028;-36
2021/05/22 00:21:01;;;;;;;0.43;0.20;;;;;;;27.59;30.62;95843.06;5032216;28;20869;-35
2021/05/22 00:23:27;;;;;;;0.75;0.25;;;;;;;27.60;30.50;95842.09;5025823;28;21036;-30
2021/05/22 00:25:52;;;;;;;0.20;0.20;;;;;;;27.60;30.62;95839.47;5028980;28;20039;-37
2021/05/22 00:28:17;;;;;;;0.35;0.20;;;;;;;27.59;30.64;95829.06;5030621;28;20159;-35
2021/05/22 00:30:43;;;;;;;0.20;0.20;;;;;;;27.59;30.53;95853.59;5027507;28;20044;-32
2021/05/22 00:33:08;;;;;;;0.40;0.22;;;;;;;27.59;30.58;95850.13;5029023;28;20021;-35
2021/05/22 00:35:33;;;;;;;1.30;0.30;;;;;;;27.59;30.53;95843.06;5026531;28;20146;-32
2021/05/22 00:37:59;;;;;;;0.30;0.30;;;;;;;27.58;30.55;95832.66;5020676;28;20071;-34
2021/05/22 00:40:24;;;;;;;0.55;0.25;;;;;;;27.58;30.53;95840.56;5026598;28;20032;-33
2021/05/22 00:42:50;;;;;;;0.25;0.20;;;;;;;27.57;30.55;95850.22;5026504;28;20048;-30
2021/05/22 00:45:24;;;;;;;1.90;0.40;;;;;;;27.58;30.54;95857.16;5027440;28;20078;-34
2021/05/22 00:47:54;;;;;;;10.63;0.43;;;;;;;27.57;30.50;95839.69;5027712;28;20036;-32
2021/05/22 00:50:24;;;;;;;2.83;0.35;;;;;;;27.58;30.47;95836.09;5011980;28;20619;-33
2021/05/22 00:52:50;;;;;;;0.93;0.30;;;;;;;27.57;30.50;95837.06;5028972;28;20802;-33
2021/05/22 00:55:16;;;;;;;0.47;0.20;;;;;;;27.54;30.50;95829.44;5029066;28;20032;-34
2021/05/22 00:57:41;;;;;;;1.42;0.28;;;;;;;27.56;30.56;95824.88;5036679;28;20020;-33
2021/05/22 01:00:12;;;;;;;0.43;0.20;;;;;;;27.57;30.36;95821.28;5001115;28;20127;-35
2021/05/22 01:02:38;;;;;;;0.60;0.30;;;;;;;27.56;30.42;95822.25;5026433;28;20090;-34
2021/05/22 01:05:04;;;;;;;1.42;0.38;;;;;;;27.52;30.68;95826.06;5024848;28;21145;-31
2021/05/22 01:07:29;;;;;;;0.57;0.30;;;;;;;27.55;30.52;95841.63;5025078;28;20583;-34
2021/05/22 01:09:56;;;;;;;1.27;0.20;;;;;;;27.56;30.51;95858.22;5026856;28;20032;-32
2021/05/22 01:12:23;;;;;;;0.68;0.20;;;;;;;27.55;30.48;95857.41;5015885;28;20058;-32
2021/05/22 01:14:52;;;;;;;0.45;0.13;;;;;;;27.52;30.39;95840.06;5018257;28;20052;-34
2021/05/22 01:17:18;;;;;;;0.43;0.22;;;;;;;27.55;30.45;95846.88;5009859;28;20113;-33
2021/05/22 01:19:46;;;;;;;0.30;0.20;;;;;;;27.55;30.44;95841.63;5012169;28;20048;-31
2021/05/22 01:22:12;;;;;;;0.10;0.10;;;;;;;27.55;30.39;95841.63;5024011;28;20060;-31
2021/05/22 01:24:48;;;;;;;0.50;0.28;;;;;;;27.54;30.42;95839.94;5018766;28;20308;-37
2021/05/22 01:27:13;;;;;;;0.45;0.20;;;;;;;27.54;30.37;95845.22;5014965;28;20458;-33
2021/05/22 01:29:39;;;;;;;1.65;0.40;;;;;;;27.53;30.51;95843.50;5016190;28;20036;-31
2021/05/22 01:32:04;;;;;;;0.77;0.32;;;;;;;27.53;30.43;95852.25;5019519;28;20037;-34
2021/05/22 01:34:30;;;;;;;2.33;0.30;;;;;;;27.53;30.45;95859.31;5008067;28;20629;-34
2021/05/22 01:36:55;;;;;;;0.65;0.30;;;;;;;27.53;30.44;95875.09;5021741;28;20037;-34
2021/05/22 01:39:20;;;;;;;0.40;0.20;;;;;;;27.52;30.39;95863.75;5030973;28;20725;-35
2021/05/22 01:41:46;;;;;;;1.10;0.22;;;;;;;27.53;30.38;95859.31;5025064;28;20948;-31
2021/05/22 01:44:11;;;;;;;0.65;0.30;;;;;;;27.52;30.34;95861.13;5021441;28;20029;-32
2021/05/22 01:46:37;;;;;;;0.20;0.20;;;;;;;27.52;30.05;95861.13;5026584;28;20850;-35
2021/05/22 01:49:02;;;;;;;1.00;0.30;;;;;;;27.52;30.43;95857.63;5026867;28;20033;-32
2021/05/22 01:51:28;;;;;;;0.20;0.20;;;;;;;27.53;30.40;95854.03;5018088;28;20036;-31
2021/05/22 01:53:53;;;;;;;0.98;0.20;;;;;;;27.53;30.38;95859.31;4996427;28;20044;-35
2021/05/22 01:56:19;;;;;;;1.10;0.40;;;;;;;27.52;30.39;95868.16;4995146;28;20981;-32
2021/05/22 01:58:45;;;;;;;0.40;0.20;;;;;;;27.52;30.17;95868.16;5025827;28;20960;-32
2021/05/22 02:01:12;;;;;;;0.40;0.20;;;;;;;27.52;30.35;95879.53;5020049;28;20045;-34
2021/05/22 02:03:46;;;;;;;0.40;0.10;;;;;;;27.52;30.46;95878.69;5029418;28;20036;-33
2021/05/22 02:06:24;;;;;;;0.47;0.30;;;;;;;27.52;30.32;95878.69;5015615;28;20581;-31
2021/05/22 02:08:52;;;;;;;1.23;0.20;;;;;;;27.53;30.32;95873.31;5020497;28;20044;-35
2021/05/22 02:11:18;;;;;;;0.20;0.20;;;;;;;27.52;30.38;95866.38;5015473;28;20988;-33
2021/05/22 02:13:43;;;;;;;0.20;0.20;;;;;;;27.51;30.33;95875.19;5001680;28;20298;-38
2021/05/22 02:16:09;;;;;;;1.17;0.40;;;;;;;27.49;30.34;95881.53;5022888;28;20024;-35
2021/05/22 02:18:34;;;;;;;1.05;0.30;;;;;;;27.52;30.32;95883.94;5023386;28;20066;-31
2021/05/22 02:21:01;;;;;;;0.20;0.20;;;;;;;27.50;30.24;95899.03;5029872;28;20029;-34
2021/05/22 02:23:27;;;;;;;0.88;0.30;;;;;;;27.52;30.27;95921.63;5023940;28;20485;-36
2021/05/22 02:25:56;;;;;;;0.22;0.20;;;;;;;27.51;30.34;95911.22;5014849;28;20020;-36
2021/05/22 02:28:22;;;;;;;1.20;0.30;;;;;;;27.50;30.35;95891.94;5032415;28;20059;-33
2021/05/22 02:30:48;;;;;;;0.57;0.30;;;;;;;27.50;30.39;95880.59;5025451;28;20033;-34
2021/05/22 02:33:15;;;;;;;0.55;0.10;;;;;;;27.50;30.38;95880.59;5028633;28;20479;-37
2021/05/22 02:35:41;;;;;;;2.63;0.40;;;;;;;27.49;30.38;95884.16;5043400;28;20025;-33
2021/05/22 02:38:07;;;;;;;0.20;0.20;;;;;;;27.48;30.45;95872.81;5036014;28;20040;-39
2021/05/22 02:40:32;;;;;;;1.05;0.25;;;;;;;27.49;30.38;95876.28;4992739;28;20682;-38
2021/05/22 02:43:06;;;;;;;0.75;0.20;;;;;;;27.49;30.33;95884.16;5033263;28;20031;-33
2021/05/22 02:45:32;;;;;;;0.63;0.22;;;;;;;27.49;30.47;95884.16;5011837;28;20029;-34
2021/05/22 02:47:57;;;;;;;0.90;0.30;;;;;;;27.48;30.31;95879.88;5014266;28;20349;-35
2021/05/22 02:50:23;;;;;;;1.45;0.35;;;;;;;27.48;30.45;95869.34;5004137;28;20028;-39
2021/05/22 02:52:48;;;;;;;1.45;0.38;;;;;;;27.48;30.27;95877.22;5009257;28;20380;-38
2021/05/22 02:55:14;;;;;;;0.10;0.10;;;;;;;27.48;30.37;95877.22;5028869;28;20036;-34
2021/05/22 02:57:39;;;;;;;0.20;0.20;;;;;;;27.47;30.26;95876.41;5028288;28;20064;-37
2021/05/22 03:00:06;;;;;;;1.48;0.30;;;;;;;27.46;30.21;95864.19;5000484;28;20721;-37
2021/05/22 03:02:31;;;;;;;0.32;0.13;;;;;;;27.46;30.36;95866.00;5017249;28;20039;-36
2021/05/22 03:04:56;;;;;;;0.38;0.20;;;;;;;27.47;30.33;95876.41;5012837;28;20033;-38
2021/05/22 03:07:22;;;;;;;0.25;0.25;;;;;;;27.46;30.26;95864.19;5020555;28;20047;-35
2021/05/22 03:09:47;;;;;;;0.10;0.10;;;;;;;27.46;30.32;95869.44;5030934;28;20431;-35
2021/05/22 03:12:20;;;;;;;0.95;0.32;;;;;;;27.46;30.40;95871.25;5019535;28;20094;-35
2021/05/22 03:14:45;;;;;;;0.60;0.20;;;;;;;27.45;30.38;95870.41;5026826;28;20638;-35
2021/05/22 03:17:13;;;;;;;1.23;0.30;;;;;;;27.43;30.30;95871.47;5013458;28;20282;-35
2021/05/22 03:19:39;;;;;;;0.60;0.40;;;;;;;27.46;30.36;95881.78;5021627;28;20079;-32
2021/05/22 03:22:04;;;;;;;0.10;0.10;;;;;;;27.45;30.45;95872.19;5007958;28;20534;-35
2021/05/22 03:24:29;;;;;;;1.35;0.32;;;;;;;27.45;30.49;95877.44;5011102;28;20056;-33
2021/05/22 03:26:55;;;;;;;0.40;0.10;;;;;;;27.44;30.27;95881.91;5032205;28;20102;-33
2021/05/22 03:29:20;;;;;;;1.85;0.30;;;;;;;27.44;30.39;95876.63;5028814;28;20024;-39
2021/05/22 03:31:46;;;;;;;0.10;0.10;;;;;;;27.44;30.40;95875.78;5024590;28;20690;-34
2021/05/22 03:34:11;;;;;;;1.05;0.20;;;;;;;27.44;30.26;95876.63;5017734;28;20091;-33
2021/05/22 03:36:36;;;;;;;1.52;0.20;;;;;;;27.44;30.28;95887.16;5031401;28;20083;-31
2021/05/22 03:39:03;;;;;;;0.95;0.30;;;;;;;27.44;30.43;95884.53;5032960;28;20530;-38
2021/05/22 03:41:28;;;;;;;0.47;0.20;;;;;;;27.44;30.35;95886.31;5023418;28;20367;-33
2021/05/22 03:43:54;;;;;;;2.20;0.28;;;;;;;27.44;30.38;95883.69;5029780;28;20033;-35
2021/05/22 03:46:19;;;;;;;0.20;0.20;;;;;;;27.43;30.29;95884.63;5020612;28;20025;-30
2021/05/22 03:48:44;;;;;;;1.10;0.20;;;;;;;27.44;30.41;95889.78;5028281;28;20028;-34
2021/05/22 03:51:10;;;;;;;0.55;0.28;;;;;;;27.42;30.32;95889.03;5023966;28;20033;-36
2021/05/22 03:53:35;;;;;;;0.95;0.30;;;;;;;27.43;30.35;95887.28;5023892;28;20460;-35
2021/05/22 03:56:01;;;;;;;0.25;0.10;;;;;;;27.42;30.46;95885.59;5028620;28;20233;-37
2021/05/22 03:58:26;;;;;;;0.25;0.10;;;;;;;27.43;30.38;95892.53;5032752;28;20085;-38
2021/05/22 04:00:51;;;;;;;1.08;0.30;;;;;;;27.43;30.42;95897.78;5016060;28;20799;-38
2021/05/22 04:03:19;;;;;;;2.45;0.30;;;;;;;27.42;30.51;95881.16;5030819;28;20037;-34
2021/05/22 04:05:44;;;;;;;1.08;0.20;;;;;;;27.42;30.42;95868.00;5018714;28;20044;-33
2021/05/22 04:08:10;;;;;;;0.40;0.20;;;;;;;27.43;30.38;95874.13;5030567;28;20143;-34
2021/05/22 04:10:35;;;;;;;1.17;0.30;;;;;;;27.42;30.41;95867.19;5027127;28;20029;-34
2021/05/22 04:13:00;;;;;;;0.35;0.30;;;;;;;27.41;30.30;95878.66;5012677;28;20273;-36
2021/05/22 04:15:28;;;;;;;0.13;0.10;;;;;;;27.42;30.32;95882.97;5026328;28;20025;-37
2021/05/22 04:17:53;;;;;;;0.90;0.22;;;;;;;27.42;30.41;95888.22;5032463;28;20037;-37
2021/05/22 04:20:19;;;;;;;0.75;0.20;;;;;;;27.42;30.36;95888.22;5027435;28;20039;-31
2021/05/22 04:22:44;;;;;;;0.22;0.20;;;;;;;27.41;30.34;95878.66;5030443;28;20033;-32
2021/05/22 04:25:10;;;;;;;0.28;0.20;;;;;;;27.39;30.30;95890.13;5030838;28;20644;-35
2021/05/22 04:27:36;;;;;;;2.35;0.30;;;;;;;27.41;30.41;95891.81;5029328;28;20036;-33
2021/05/22 04:30:01;;;;;;;0.82;0.30;;;;;;;27.39;30.33;95882.22;5028082;28;20029;-34
2021/05/22 04:32:27;;;;;;;0.70;0.20;;;;;;;27.38;30.52;95883.19;5028860;28;20033;-32
2021/05/22 04:34:52;;;;;;;0.45;0.20;;;;;;;27.38;30.38;95875.28;5025204;28;20053;-31
2021/05/22 04:37:17;;;;;;;0.40;0.10;;;;;;;27.38;30.58;95877.06;5031281;28;20029;-36
2021/05/22 04:39:43;;;;;;;0.30;0.20;;;;;;;27.38;30.38;95877.06;5017575;28;20740;-36
2021/05/22 04:42:08;;;;;;;0.40;0.30;;;;;;;27.36;30.43;95879.84;5026876;28;20021;-32
2021/05/22 04:44:33;;;;;;;1.65;0.13;;;;;;;27.37;30.49;95892.03;5026687;28;20032;-37
2021/05/22 04:46:59;;;;;;;0.30;0.10;;;;;;;27.36;30.28;95874.59;5025871;28;20628;-36
2021/05/22 04:49:27;;;;;;;0.80;0.20;;;;;;;27.36;30.40;95874.59;5030872;28;20020;-31
2021/05/22 04:51:56;;;;;;;0.63;0.20;;;;;;;27.37;30.38;95881.50;5031723;28;20135;-36
2021/05/22 04:54:22;;;;;;;0.85;0.30;;;;;;;27.37;30.35;95886.78;5029193;28;20698;-37
2021/05/22 04:56:47;;;;;;;0.93;0.32;;;;;;;27.37;30.38;95880.66;5030507;28;20028;-38
2021/05/22 04:59:13;;;;;;;1.17;0.13;;;;;;;27.35;30.44;95878.13;5031260;28;20032;-33
2021/05/22 05:01:40;;;;;;;1.08;0.20;;;;;;;27.36;30.37;95885.09;5021843;28;20392;-37
2021/05/22 05:04:06;;;;;;;2.17;0.20;;;;;;;27.35;30.35;95888.66;5021087;28;20040;-36
2021/05/22 05:06:32;;;;;;;0.10;0.10;;;;;;;27.36;30.45;95889.50;5022188;28;20028;-36
2021/05/22 05:08:57;;;;;;;0.32;0.30;;;;;;;27.35;30.44;95883.41;5022842;28;20037;-32
2021/05/22 05:11:23;;;;;;;1.45;0.40;;;;;;;27.35;30.39;95891.28;5028782;28;20039;-34
2021/05/22 05:13:48;;;;;;;0.30;0.22;;;;;;;27.35;30.38;95893.94;5032613;28;20381;-33
2021/05/22 05:16:14;;;;;;;0.45;0.10;;;;;;;27.36;30.33;95900.03;5022418;28;20596;-34
2021/05/22 05:18:40;;;;;;;1.50;0.25;;;;;;;27.35;30.44;95893.09;5023282;28;20036;-37
2021/05/22 05:21:05;;;;;;;0.20;0.20;;;;;;;27.34;30.30;95892.25;5027979;28;20449;-34
2021/05/22 05:23:31;;;;;;;5.25;0.28;;;;;;;27.34;30.42;95900.16;5019727;28;20510;-38
2021/05/22 05:25:56;;;;;;;0.10;0.10;;;;;;;27.34;30.38;95902.78;5021337;28;20923;-35
2021/05/22 05:28:21;;;;;;;0.45;0.10;;;;;;;27.34;30.40;95905.41;5030881;28;20033;-32
2021/05/22 05:30:47;;;;;;;0.75;0.22;;;;;;;27.34;30.45;95900.16;5019648;28;20045;-37
2021/05/22 05:33:13;;;;;;;1.50;0.30;;;;;;;27.35;30.42;95898.38;5024975;28;20504;-37
2021/05/22 05:35:38;;;;;;;1.35;0.35;;;;;;;27.30;30.42;95901.31;5026280;28;20097;-33
2021/05/22 05:38:03;;;;;;;1.17;0.25;;;;;;;27.34;30.48;95902.78;5018395;28;20033;-33
2021/05/22 05:40:29;;;;;;;0.77;0.20;;;;;;;27.33;30.14;95901.09;5027744;28;20025;-32
2021/05/22 05:42:55;;;;;;;2.85;0.30;;;;;;;27.33;30.42;95898.47;5038262;28;20027;-31
2021/05/22 05:45:20;;;;;;;0.22;0.10;;;;;;;27.33;30.49;95906.38;5030486;28;20016;-33
2021/05/22 05:47:46;;;;;;;0.20;0.20;;;;;;;27.32;30.41;95899.44;5028076;28;20773;-35
2021/05/22 05:50:11;;;;;;;0.10;0.10;;;;;;;27.33;30.50;95901.09;5035758;28;20083;-37
2021/05/22 05:52:37;;;;;;;0.30;0.10;;;;;;;27.33;30.38;95905.50;5035975;28;20094;-32
2021/05/22 05:55:02;;;;;;;0.43;0.20;;;;;;;27.33;30.43;95911.63;5030769;28;20510;-36
2021/05/22 05:57:27;;;;;;;0.30;0.10;;;;;;;27.34;30.48;95909.84;5036374;28;20036;-35
2021/05/22 05:59:53;;;;;;;1.27;0.28;;;;;;;27.33;30.47;95906.38;5020272;28;20044;-36
2021/05/22 06:02:18;;;;;;;0.80;0.10;;;;;;;27.33;30.51;95909.00;5024529;28;20041;-37
2021/05/22 06:04:44;;;;;;;0.15;0.10;;;;;;;27.33;30.36;95906.38;5029755;28;20041;-34
2021/05/22 06:07:09;;;;;;;0.52;0.17;;;;;;;27.34;30.45;95904.59;5005414;28;20022;-39
2021/05/22 06:09:35;;;;;;;1.48;0.17;;;;;;;27.33;30.51;95908.16;5032618;28;20032;-32
2021/05/22 06:12:00;;;;;;;0.30;0.28;;;;;;;27.33;30.53;95906.38;5035589;28;20511;-33
2021/05/22 06:14:32;;;;;;;1.50;0.40;;;;;;;27.33;30.46;95913.41;5032687;28;20674;-33
2021/05/22 06:16:57;;;;;;;;;;;;;;;27.33;30.42;95921.31;5023925;28;20482;-38
2021/05/22 06:19:22;;;;;;;0.60;0.17;;;;;;;27.33;30.54;95916.88;5018413;28;19917;-32
2021/05/22 06:21:48;;;;;;;0.50;0.10;;;;;;;27.30;30.51;95905.75;5030486;28;20098;-34
2021/05/22 06:24:13;;;;;;;0.65;0.20;;;;;;;27.33;30.48;95914.25;5032114;28;20097;-39
2021/05/22 06:26:39;;;;;;;2.63;0.30;;;;;;;27.32;30.46;95912.59;5019847;28;20024;-35
2021/05/22 06:29:04;;;;;;;1.63;0.35;;;;;;;27.33;30.38;95916.03;5030844;28;20037;-40
2021/05/22 06:31:29;;;;;;;0.22;0.20;;;;;;;27.34;30.38;95918.56;5014904;28;20056;-31
2021/05/22 06:33:55;;;;;;;1.35;0.47;;;;;;;27.32;30.50;95915.22;5028579;28;20355;-31
2021/05/22 06:36:20;;;;;;;0.20;0.10;;;;;;;27.33;30.54;95911.63;5004931;28;20765;-32
2021/05/22 06:38:46;;;;;;;1.67;0.38;;;;;;;27.33;30.54;95916.88;5036330;28;20032;-34
2021/05/22 06:41:11;;;;;;;7.97;0.75;;;;;;;27.34;30.68;95910.66;4990469;28;20036;-33
2021/05/22 06:43:36;;;;;;;10.40;0.95;;;;;;;27.33;30.67;95911.63;5021629;28;20032;-37
2021/05/22 06:48:40;;;;;;;5.10;1.08;;;;;;;27.30;30.16;95905.75;5024073;28;20035;-33
2021/05/22 06:51:06;;;;;;;3.33;0.40;;;;;;;27.29;30.28;95904.06;5002027;28;20554;-33
2021/05/22 06:53:31;;;;;;;2.17;0.40;;;;;;;27.29;30.22;95910.16;5017401;28;20063;-33
2021/05/22 06:55:57;;;;;;;1.17;0.47;;;;;;;27.29;30.19;95917.22;5021619;28;20131;-31
2021/05/22 06:58:23;;;;;;;2.78;0.80;;;;;;;27.30;30.20;95919.72;5013220;28;20643;-36
2021/05/22 07:00:48;;;;;;;2.20;0.50;;;;;;;27.32;30.20;95914.38;5020776;28;20044;-33
2021/05/22 07:03:14;;;;;;;4.60;0.98;;;;;;;27.31;30.20;95917.97;5014983;28;20579;-32
2021/05/22 07:05:40;;;;;;;2.08;0.73;;;;;;;27.32;30.25;95920.47;5021478;28;20029;-34
2021/05/22 07:08:05;;;;;;;1.10;0.52;;;;;;;27.33;30.24;95922.16;5022556;28;20050;-32
2021/05/22 07:10:31;;;;;;;3.05;0.60;;;;;;;27.34;30.21;95917.75;5019798;28;20040;-35
2021/05/22 07:12:56;;;;;;;3.28;0.70;;;;;;;27.34;30.32;95926.44;5016495;28;20036;-34
2021/05/22 07:15:22;;;;;;;4.35;0.90;;;;;;;27.35;30.27;95920.22;5012034;28;20025;-39
2021/05/22 07:17:50;;;;;;;1.55;0.60;;;;;;;27.36;30.24;95927.19;5006433;28;20308;-34
2021/05/22 07:20:15;;;;;;;2.30;1.00;;;;;;;27.37;30.04;95928.88;5022856;28;20060;-34
2021/05/22 07:22:42;;;;;;;1.45;0.70;;;;;;;27.38;30.13;95927.91;5024333;28;20343;-31
2021/05/22 07:25:07;;;;;;;5.95;0.98;;;;;;;27.38;30.06;95935.81;5021179;28;20038;-30
2021/05/22 07:27:36;;;;;;;3.08;0.90;;;;;;;27.39;30.31;95939.28;5024102;28;20057;-36
2021/05/22 07:30:14;;;;;;;3.10;1.10;;;;;;;27.40;29.90;95938.31;5013102;28;20039;-33
2021/05/22 07:32:40;;;;;;;4.28;0.82;;;;;;;27.39;30.00;95950.63;5021514;28;20171;-32
2021/05/22 07:35:06;;;;;;;1.95;0.90;;;;;;;27.40;30.09;95948.84;5022141;28;20021;-34
2021/05/22 07:37:32;;;;;;;1.67;0.80;;;;;;;27.40;30.12;95948.84;5020862;28;20399;-31
2021/05/22 07:39:57;;;;;;;2.42;0.85;;;;;;;27.42;29.91;95946.09;5021199;28;20021;-31
2021/05/22 07:42:26;;;;;;;1.92;0.80;;;;;;;27.42;30.08;95946.94;5020904;28;20028;-38
2021/05/22 07:44:52;;;;;;;0.90;0.70;;;;;;;27.42;30.13;95954.00;5021496;28;20052;-31
2021/05/22 07:47:18;;;;;;;1.73;0.70;;;;;;;27.43;30.12;95953.03;5021508;28;20430;-33
2021/05/22 07:49:43;;;;;;;1.38;0.77;;;;;;;27.44;30.17;95949.44;5035132;28;20102;-33
2021/05/22 07:52:10;;;;;;;2.40;0.80;;;;;;;27.45;30.17;95951.13;5021939;28;22434;-36
2021/05/22 07:54:38;;;;;;;2.17;0.70;;;;;;;27.45;30.21;95956.38;5020802;28;20154;-32
2021/05/22 07:57:04;;;;;;;2.00;0.75;;;;;;;27.46;30.18;95947.56;5019321;28;20025;-31
2021/05/22 07:59:30;;;;;;;3.83;0.70;;;;;;;27.46;30.25;95955.47;5020142;28;20021;-34
2021/05/22 08:01:55;;;;;;;2.05;0.70;;;;;;;27.47;30.27;95962.41;5017210;28;20701;-32
2021/05/22 08:04:21;;;;;;;4.97;0.80;;;;;;;27.48;30.29;95961.44;5018386;28;21296;-32
2021/05/22 08:06:46;;;;;;;1.45;0.70;;;;;;;27.50;30.23;95954.28;5018550;28;20029;-30
2021/05/22 08:09:11;;;;;;;2.05;0.80;;;;;;;27.51;30.15;95961.22;5022114;28;20028;-36
2021/05/22 08:11:37;;;;;;;2.38;0.70;;;;;;;27.50;30.16;95949.84;5018003;28;20694;-31
2021/05/22 08:14:02;;;;;;;3.40;0.75;;;;;;;27.52;30.24;95944.47;5022461;28;20041;-36
2021/05/22 08:16:28;;;;;;;2.13;0.80;;;;;;;27.53;30.23;95940.88;5019976;28;20899;-32
2021/05/22 08:18:53;;;;;;;1.40;0.50;;;;;;;27.54;30.35;95950.47;5006644;28;20033;-38
2021/05/22 08:21:22;;;;;;;2.22;0.93;;;;;;;27.55;30.39;95941.63;5021186;28;20721;-31
2021/05/22 08:23:48;;;;;;;2.28;0.80;;;;;;;27.57;30.22;95933.63;5007877;28;20027;-33
2021/05/22 08:26:13;;;;;;;1.30;0.65;;;;;;;27.57;30.27;95950.22;4998793;28;20017;-36
2021/05/22 08:28:39;;;;;;;2.08;0.80;;;;;;;27.59;30.27;95940.44;5020961;28;20028;-32
2021/05/22 08:31:04;;;;;;;4.47;1.02;;;;;;;27.60;30.37;95939.47;5018281;28;20787;-34
2021/05/22 08:33:30;;;;;;;1.45;0.70;;;;;;;27.62;30.33;95932.34;5020307;28;20137;-36
2021/05/22 08:35:55;;;;;;;1.23;0.63;;;;;;;27.63;30.40;95939.28;5017072;28;20504;-34
2021/05/22 08:38:21;;;;;;;3.42;1.10;;;;;;;27.62;27.62;95934.97;5022940;28;20499;-41
2021/05/22 08:40:46;;;;;;;11.88;2.25;;;;;;;27.54;24.75;95932.06;5028274;28;20025;-32
2021/05/22 08:43:12;;;;;;;4.88;1.70;;;;;;;27.44;23.32;95928.41;5022595;28;20039;-33
2021/05/22 08:45:37;;;;;;;6.15;1.75;;;;;;;27.29;23.18;95933.00;5022386;28;20515;-39
2021/05/22 08:48:03;;;;;;;5.78;1.30;;;;;;;27.15;22.50;95929.59;4993864;28;20062;-32
2021/05/22 08:50:28;;;;;;;3.38;1.30;;;;;;;27.04;22.81;95932.97;5025142;28;20157;-34
2021/05/22 08:52:54;;;;;;;6.78;1.15;;;;;;;26.96;23.21;95919.56;5020465;28;20033;-29
2021/05/22 08:55:22;;;;;;;3.08;1.17;;;;;;;26.91;23.69;95924.25;5021922;28;20033;-37
2021/05/22 08:57:47;;;;;;;4.90;1.35;;;;;;;26.88;23.96;95915.66;5023450;28;20432;-34
2021/05/22 09:00:15;;;;;;;2.65;1.15;;;;;;;26.90;24.26;95914.72;5018342;28;20356;-30
2021/05/22 09:02:40;;;;;;;4.32;1.38;;;;;;;26.90;24.67;95917.34;5019636;28;20232;-31
2021/05/22 09:05:15;;;;;;;5.18;1.13;;;;;;;26.92;24.87;95918.09;5023517;28;20357;-32
2021/05/22 09:07:47;;;;;;;5.82;1.45;;;;;;;26.94;24.95;95916.16;5022181;28;20024;-32
2021/05/22 09:10:17;;;;;;;4.25;1.05;;;;;;;26.97;25.32;95921.25;5017372;28;20067;-33
2021/05/22 09:12:44;;;;;;;3.92;1.40;;;;;;;26.99;25.33;95914.06;5019517;28;20378;-33
2021/05/22 09:15:17;;;;;;;9.75;1.02;;;;;;;27.03;25.48;95923.44;5022163;28;20076;-36
2021/05/22 09:18:02;;;;;;;6.50;0.93;;;;;;;27.06;25.64;95920.59;5014223;28;20037;-34
2021/05/22 09:20:29;;;;;;;4.00;1.00;;;;;;;27.10;25.75;95922.03;5021055;28;20566;-34
2021/05/22 09:23:04;;;;;;;2.72;1.08;;;;;;;27.12;25.86;95928.00;5016841;28;20781;-39
2021/05/22 09:25:30;;;;;;;3.33;1.10;;;;;;;27.15;26.07;95924.31;5019407;28;20025;-33
2021/05/22 09:27:57;;;;;;;6.45;1.25;;;;;;;27.19;26.12;95927.59;5020602;28;21039;-37
2021/05/22 09:30:23;;;;;;;3.42;0.95;;;;;;;27.21;26.29;95928.31;5016818;28;20118;-31
2021/05/22 09:32:48;;;;;;;2.53;1.00;;;;;;;27.23;26.32;95923.78;5019896;28;20056;-32
2021/05/22 09:35:14;;;;;;;4.82;1.15;;;;;;;27.26;26.59;95931.44;5020095;28;20033;-35
2021/05/22 09:37:48;;;;;;;3.67;0.82;;;;;;;27.28;26.47;95929.53;5026374;28;20056;-31
2021/05/22 09:40:32;;;;;;;4.05;1.33;;;;;;;27.31;26.54;95929.31;5019270;28;20029;-33
2021/05/22 09:42:58;;;;;;;6.00;1.10;;;;;;;27.31;26.71;95924.03;5028879;28;20032;-35
2021/05/22 09:45:45;;;;;;;8.70;1.65;;;;;;;27.38;26.67;95929.69;5018540;28;20117;-32
2021/05/22 09:48:17;;;;;;;11.57;2.20;;;;;;;27.41;26.77;95933.91;4999462;28;20696;-35
2021/05/22 09:50:50;;;;;;;8.98;2.00;;;;;;;27.42;26.76;95930.31;5019485;28;20091;-30
2021/05/22 09:53:20;;;;;;;9.18;2.45;;;;;;;27.43;26.99;95927.59;5022896;28;20036;-31
2021/05/22 09:56:14;;;;;;;10.55;2.50;;;;;;;27.45;27.06;95928.28;5020141;28;20029;-34
2021/05/22 09:58:48;;;;;;;9.18;2.40;;;;;;;27.47;27.01;95934.31;5016584;28;20036;-32
2021/05/22 10:01:16;;;;;;;9.18;2.30;;;;;;;27.49;27.12;95936.78;5019346;28;20048;-31
2021/05/22 10:03:41;;;;;;;9.80;2.80;;;;;;;27.50;27.14;95930.59;5021176;28;20037;-31
2021/05/22 10:06:06;;;;;;;7.05;2.58;;;;;;;27.52;27.16;95937.44;5022430;28;20627;-34
2021/05/22 10:08:32;;;;;;;9.85;2.88;;;;;;;27.54;27.15;95945.22;5020016;28;20024;-32
2021/05/22 10:10:58;;;;;;;7.20;2.22;;;;;;;27.55;27.29;95931.09;5019516;28;20029;-37
2021/05/22 10:13:24;;;;;;;17.67;2.60;;;;;;;27.57;27.29;95929.19;5020277;28;20611;-29
2021/05/22 10:15:54;;;;;;;7.93;2.75;;;;;;;27.58;27.37;95925.59;5022744;28;20139;-34
2021/05/22 10:18:20;;;;;;;8.88;2.45;;;;;;;27.60;27.48;95923.69;5022948;28;20091;-32
2021/05/22 10:20:46;;;;;;;10.32;2.65;;;;;;;27.62;27.46;95926.25;5021338;28;20128;-32
2021/05/22 10:23:11;;;;;;;9.93;2.40;;;;;;;27.62;27.45;95927.06;5023371;28;20036;-32
2021/05/22 10:25:38;;;;;;;7.82;2.38;;;;;;;27.64;27.40;95932.22;5028091;28;20032;-34
2021/05/22 10:28:04;;;;;;;7.15;1.90;;;;;;;27.65;27.44;95931.28;5031501;28;20406;-31
2021/05/22 10:30:29;;;;;;;5.75;2.28;;;;;;;27.68;27.59;95933.66;5023912;28;20032;-30
2021/05/22 10:33:05;;;;;;;8.38;2.20;;;;;;;27.69;27.63;95939.78;5023232;28;20036;-32
2021/05/22 10:35:48;;;;;;;7.07;2.20;;;;;;;27.71;27.57;95937.88;5022903;28;20021;-31
2021/05/22 10:38:32;;;;;;;12.15;2.45;;;;;;;27.71;27.68;95929.97;5022037;28;20171;-35
2021/05/22 10:41:01;;;;;;;7.88;2.25;;;;;;;27.72;27.63;95931.66;5025322;28;20024;-33
2021/05/22 10:44:00;;;;;;;8.40;2.20;;;;;;;27.73;27.94;95935.97;5025214;28;20536;-32
2021/05/22 10:46:25;;;;;;;5.78;2.10;;;;;;;27.74;27.86;95929.75;5015694;28;20052;-31
2021/05/22 10:49:02;;;;;;;5.65;2.00;;;;;;;27.76;27.97;95941.00;5022704;28;20097;-37
2021/05/22 10:51:32;;;;;;;5.47;1.85;;;;;;;27.77;27.97;95942.69;5021910;28;21021;-33
2021/05/22 10:53:59;;;;;;;7.93;2.00;;;;;;;27.79;28.12;95943.41;5022251;28;20130;-32
2021/05/22 10:56:26;;;;;;;7.03;1.80;;;;;;;27.80;28.12;95937.19;5017029;28;20087;-34
2021/05/22 10:59:10;;;;;;;6.00;2.08;;;;;;;27.81;28.20;95938.88;5023154;28;20029;-37
2021/05/22 11:01:36;;;;;;;5.03;1.80;;;;;;;27.83;28.24;95936.97;5011773;28;20056;-30
2021/05/22 11:06:58;;;;;;;7.13;2.08;;;;;;;27.85;28.34;95940.31;5014755;28;20040;-30
2021/05/22 11:09:26;;;;;;;3.80;1.70;;;;;;;27.86;28.34;95944.63;5023121;28;20091;-34
2021/05/22 11:11:58;;;;;;;5.10;1.63;;;;;;;27.87;28.30;95951.56;5022085;28;20033;-31
2021/05/22 11:14:42;;;;;;;9.63;1.98;;;;;;;27.89;28.48;95954.91;5024735;28;20018;-32
2021/05/22 11:17:33;;;;;;;10.70;1.40;;;;;;;27.90;28.50;95951.34;5021688;28;20028;-32
2021/05/22 11:20:03;;;;;;;6.38;1.92;;;;;;;27.91;28.56;95945.13;5012952;28;20436;-31
2021/05/22 11:22:49;;;;;;;5.03;1.50;;;;;;;27.92;28.43;95949.41;5026009;28;20189;-37
2021/05/22 11:25:17;;;;;;;4.55;1.70;;;;;;;27.93;28.51;95937.09;5015988;28;20678;-32
2021/05/22 11:30:42;;;;;;;10.13;1.65;;;;;;;27.95;28.66;95958.06;5021218;28;20048;-33
2021/05/22 11:33:11;;;;;;;4.88;1.60;;;;;;;27.95;28.69;95953.63;5019577;28;20041;-32
2021/05/22 11:35:38;;;;;;;7.28;1.70;;;;;;;27.96;28.72;95962.38;5029031;28;20068;-34
2021/05/22 11:38:18;;;;;;;8.75;1.67;;;;;;;27.95;28.68;95960.69;5030061;28;20175;-31
2021/05/22 11:40:44;;;;;;;6.13;1.48;;;;;;;27.95;28.84;95942.25;5032801;28;20037;-34
2021/05/22 11:43:12;;;;;;;5.10;1.40;;;;;;;27.96;28.81;95936.03;5027624;28;20533;-36